Bucoda, Washington
Current Conditions -  °F | °C
As of 8:35 PM on Tuesday 21 Oct 2014 (Local Time) from KCLS Reporting Station
Overcast Overcast  
Wind Chill: 59°   Ceiling: 7000
Heat Index: 59°   Visibility: 10mi
Dew Point: 52°   Wind: 12mph
Humidity: 77%   Direction: 190°S
Pressure: 29.83"   Gusts: 20mph
Location:  46.8°N, 122.87°W
Report Text: KCLS 220335Z AUTO 19010G17KT 10SM SCT060 OVC070 15/11 A2983 RMK AO2
Loading
Personal Weather Stations






























Interactive Weather Map
Tropical Storm Tracking
New forecast layout! Learn more

10-Day Weather Forecast

Advertisements
Track Severe Weather on mobile